Time;durP1;ratioP1;P1;durP2;ratioP2;P2;SDS_P1;SDS_P2;PMS_P1;PMS_P2;Temp;Humidity;BMP_temperature;BMP_pressure;BME280_temperature;BME280_humidity;BME280_pressure;Samples;Min_cycle;Max_cycle;Signal;HPM_P1;HPM_P2
2021/03/12 00:02:12;;;;;;;4.10;2.13;;;7.50;99.90;;;;;;5104604;28;20314;-81
2021/03/12 00:04:38;;;;;;;1.80;1.70;;;7.50;99.90;;;;;;5104721;28;20660;-81
2021/03/12 00:07:04;;;;;;;3.17;1.83;;;7.50;99.90;;;;;;5104902;28;20353;-79
2021/03/12 00:09:30;;;;;;;4.33;2.33;;;7.50;99.90;;;;;;5104814;28;20338;-81
2021/03/12 00:11:57;;;;;;;2.80;1.90;;;7.50;99.90;;;;;;5101996;28;20234;-82
2021/03/12 00:14:24;;;;;;;2.30;1.90;;;7.50;99.90;;;;;;5084229;28;20632;-80
2021/03/12 00:16:51;;;;;;;3.47;1.90;;;7.50;99.90;;;;;;5084638;28;20199;-78
2021/03/12 00:19:17;;;;;;;2.90;2.10;;;7.50;99.90;;;;;;5083674;28;20207;-80
2021/03/12 00:21:43;;;;;;;3.67;2.20;;;7.60;99.90;;;;;;5084402;28;20730;-80
2021/03/12 00:24:10;;;;;;;2.10;1.70;;;7.70;99.90;;;;;;5084159;28;20211;-80
2021/03/12 00:26:36;;;;;;;2.33;1.80;;;7.50;99.90;;;;;;5084268;28;20199;-80
2021/03/12 00:29:02;;;;;;;4.50;1.83;;;7.60;99.90;;;;;;5083951;28;20673;-80
2021/03/12 00:31:29;;;;;;;2.20;2.00;;;7.50;99.90;;;;;;5085522;28;20556;-81
2021/03/12 00:33:55;;;;;;;3.17;1.87;;;7.50;99.90;;;;;;5088314;28;20211;-81
2021/03/12 00:36:21;;;;;;;4.00;1.60;;;7.50;99.90;;;;;;5092328;27;20226;-79
2021/03/12 00:38:48;;;;;;;1.97;1.70;;;7.50;99.90;;;;;;5107655;28;20194;-80
2021/03/12 00:41:14;;;;;;;1.83;1.67;;;7.40;99.90;;;;;;5100545;28;20221;-79
2021/03/12 00:43:40;;;;;;;2.90;1.70;;;7.40;99.90;;;;;;5091873;28;20199;-80
2021/03/12 00:46:09;;;;;;;1.87;1.67;;;7.40;99.90;;;;;;5091602;28;20199;-80
2021/03/12 00:48:37;;;;;;;3.43;1.77;;;7.40;99.90;;;;;;5091162;28;20657;-79
2021/03/12 00:51:05;;;;;;;3.37;1.73;;;7.40;99.90;;;;;;5091310;28;20225;-79
2021/03/12 00:53:31;;;;;;;2.27;1.57;;;7.40;99.90;;;;;;5091544;28;20256;-79
2021/03/12 00:55:58;;;;;;;2.50;1.20;;;7.40;99.90;;;;;;5091461;28;20213;-79
2021/03/12 00:58:26;;;;;;;1.80;1.63;;;7.40;99.90;;;;;;5091130;28;20203;-80
2021/03/12 01:00:52;;;;;;;2.50;1.40;;;7.40;99.90;;;;;;5091530;28;20213;-80
2021/03/12 01:03:18;;;;;;;2.20;1.47;;;7.30;99.90;;;;;;5090981;28;20292;-81
2021/03/12 01:05:45;;;;;;;1.63;1.53;;;7.30;99.90;;;;;;5091273;28;20263;-80
2021/03/12 01:08:12;;;;;;;4.40;2.10;;;7.30;99.90;;;;;;5091132;28;20256;-82
2021/03/12 01:10:39;;;;;;;2.40;1.87;;;7.30;99.90;;;;;;5091341;28;20568;-81
2021/03/12 01:13:06;;;;;;;1.87;1.47;;;7.20;99.90;;;;;;5091557;28;20260;-83
2021/03/12 01:15:32;;;;;;;1.43;1.33;;;7.20;99.90;;;;;;5090957;28;20756;-79
2021/03/12 01:17:58;;;;;;;2.17;1.70;;;7.10;99.90;;;;;;5091270;28;20214;-79
2021/03/12 01:20:26;;;;;;;2.00;1.30;;;7.00;99.90;;;;;;5090781;28;20738;-78
2021/03/12 01:22:55;;;;;;;3.53;1.30;;;6.90;99.90;;;;;;5090968;28;20213;-79
2021/03/12 01:25:24;;;;;;;1.87;1.07;;;6.90;99.90;;;;;;5091015;28;20207;-79
2021/03/12 01:27:51;;;;;;;1.40;1.30;;;6.90;99.90;;;;;;5091042;28;20203;-79
2021/03/12 01:30:21;;;;;;;1.27;1.17;;;6.80;99.90;;;;;;5090686;28;20207;-79
2021/03/12 01:32:48;;;;;;;1.87;1.20;;;6.70;99.90;;;;;;5090816;28;20222;-79
2021/03/12 01:35:15;;;;;;;2.93;1.20;;;6.80;99.90;;;;;;5090518;28;20260;-79
2021/03/12 01:37:41;;;;;;;1.23;1.10;;;6.70;99.90;;;;;;5091003;28;20256;-79
2021/03/12 01:40:13;;;;;;;1.73;1.30;;;6.70;99.90;;;;;;5109494;28;20570;-79
2021/03/12 01:42:39;;;;;;;2.10;1.30;;;6.70;99.90;;;;;;5110378;28;20275;-79
2021/03/12 01:45:07;;;;;;;2.37;1.40;;;6.70;99.90;;;;;;5110469;28;20977;-78
2021/03/12 01:47:33;;;;;;;2.23;1.40;;;6.70;99.90;;;;;;5110871;28;20221;-77
2021/03/12 01:49:59;;;;;;;1.60;1.47;;;6.70;99.90;;;;;;5110953;28;20202;-77
2021/03/12 01:52:25;;;;;;;2.07;1.60;;;6.70;99.90;;;;;;5110688;28;20229;-79
2021/03/12 01:54:51;;;;;;;2.73;1.67;;;6.70;99.90;;;;;;5110701;28;20237;-78
2021/03/12 01:57:18;;;;;;;2.87;1.50;;;6.70;99.90;;;;;;5110255;28;20613;-78
2021/03/12 01:59:45;;;;;;;3.67;1.60;;;6.70;99.90;;;;;;5110670;28;20210;-78
2021/03/12 02:02:11;;;;;;;3.97;1.83;;;6.70;99.90;;;;;;5110513;28;20241;-78
2021/03/12 02:04:37;;;;;;;2.30;1.80;;;6.60;99.90;;;;;;5110809;28;20223;-78
2021/03/12 02:07:04;;;;;;;2.30;1.70;;;6.50;99.90;;;;;;5110555;28;20574;-77
2021/03/12 02:09:30;;;;;;;1.93;1.83;;;6.60;99.90;;;;;;5110086;28;20210;-77
2021/03/12 02:12:01;;;;;;;2.63;1.93;;;6.50;99.90;;;;;;5110619;28;20262;-79
2021/03/12 02:14:37;;;;;;;1.73;1.63;;;6.50;99.90;;;;;;5101470;28;20735;-79
2021/03/12 02:17:10;;;;;;;2.33;2.13;;;6.50;99.90;;;;;;5090258;28;20206;-79
2021/03/12 02:19:49;;;;;;;3.10;2.23;;;6.50;99.90;;;;;;5089610;28;20202;-79
2021/03/12 02:22:16;;;;;;;3.63;2.13;;;6.40;99.90;;;;;;5089620;28;20649;-79
2021/03/12 02:24:49;;;;;;;1.97;1.87;;;6.40;99.90;;;;;;5089846;28;20207;-79
2021/03/12 02:27:18;;;;;;;3.23;1.60;;;6.40;99.90;;;;;;5089844;28;20198;-80
2021/03/12 02:29:47;;;;;;;2.50;1.83;;;6.40;99.90;;;;;;5089411;28;20699;-79
2021/03/12 02:32:17;;;;;;;3.03;2.70;;;6.30;99.90;;;;;;5088769;28;20253;-78
2021/03/12 02:34:47;;;;;;;3.47;2.23;;;6.30;99.90;;;;;;5089455;28;20664;-79
2021/03/12 02:37:16;;;;;;;3.03;2.13;;;6.30;99.90;;;;;;5089719;28;20227;-80
2021/03/12 02:39:46;;;;;;;2.43;2.00;;;6.30;99.90;;;;;;5104639;28;20847;-79
2021/03/12 02:42:14;;;;;;;3.73;2.20;;;6.30;99.90;;;;;;5109987;28;20202;-79
2021/03/12 02:44:43;;;;;;;2.13;1.87;;;6.30;99.90;;;;;;5109871;28;20238;-79
2021/03/12 02:47:14;;;;;;;2.43;2.20;;;6.30;99.90;;;;;;5109934;27;20206;-79
2021/03/12 02:49:41;;;;;;;2.70;2.50;;;6.20;99.90;;;;;;5109766;28;20214;-78
2021/03/12 02:52:07;;;;;;;3.57;1.60;;;6.20;99.90;;;;;;5109785;28;20229;-78
2021/03/12 02:54:34;;;;;;;3.60;1.80;;;6.10;99.90;;;;;;5109290;28;20209;-77
2021/03/12 02:57:01;;;;;;;1.50;1.40;;;6.10;99.90;;;;;;5109684;28;20204;-77
2021/03/12 02:59:28;;;;;;;3.60;1.90;;;6.10;99.90;;;;;;5109398;28;20251;-78
2021/03/12 03:01:56;;;;;;;1.53;1.50;;;6.10;99.90;;;;;;5109358;28;20263;-77
2021/03/12 03:04:23;;;;;;;2.13;1.70;;;6.00;99.90;;;;;;5109384;28;20194;-78
2021/03/12 03:06:50;;;;;;;1.83;1.67;;;6.00;99.90;;;;;;5109407;28;20202;-77
2021/03/12 03:09:18;;;;;;;4.63;1.53;;;6.00;99.90;;;;;;5109203;28;20221;-77
2021/03/12 03:11:45;;;;;;;3.13;1.30;;;6.00;99.90;;;;;;5109486;28;20226;-80
2021/03/12 03:14:14;;;;;;;3.93;1.07;;;5.90;99.90;;;;;;5109297;28;20672;-80
2021/03/12 03:16:44;;;;;;;2.87;1.00;;;5.90;99.90;;;;;;5108889;28;20206;-79
2021/03/12 03:19:12;;;;;;;1.13;1.07;;;5.90;99.90;;;;;;5109503;28;20202;-80
2021/03/12 03:21:40;;;;;;;1.43;0.93;;;5.90;99.90;;;;;;5109245;28;20210;-79
2021/03/12 03:24:08;;;;;;;2.77;1.10;;;5.80;99.90;;;;;;5109245;28;20210;-78
2021/03/12 03:26:35;;;;;;;1.87;0.70;;;5.80;99.90;;;;;;5109105;28;20206;-78
2021/03/12 03:29:01;;;;;;;1.07;0.80;;;5.80;99.90;;;;;;5109063;28;20210;-79
2021/03/12 03:31:28;;;;;;;2.23;0.80;;;5.70;99.90;;;;;;5108990;28;20223;-79
2021/03/12 03:33:54;;;;;;;0.60;0.60;;;5.70;99.90;;;;;;5109243;28;20210;-79
2021/03/12 03:36:21;;;;;;;1.97;0.90;;;5.70;99.90;;;;;;5108866;28;20248;-78
2021/03/12 03:38:47;;;;;;;0.73;0.73;;;5.70;99.90;;;;;;5108868;28;20210;-79
2021/03/12 03:41:16;;;;;;;3.37;0.93;;;5.70;99.90;;;;;;5108895;28;20255;-80
2021/03/12 03:43:46;;;;;;;1.70;0.80;;;5.70;99.90;;;;;;5108867;28;20202;-79
2021/03/12 03:46:13;;;;;;;2.20;0.90;;;5.70;99.90;;;;;;5108955;28;20259;-79
2021/03/12 03:48:40;;;;;;;2.60;0.97;;;5.70;99.90;;;;;;5108901;28;20217;-79
2021/03/12 03:51:08;;;;;;;1.90;0.93;;;5.70;99.90;;;;;;5108876;28;20206;-78
2021/03/12 03:53:36;;;;;;;2.00;0.80;;;5.70;99.90;;;;;;5108422;28;20234;-79
2021/03/12 03:56:04;;;;;;;1.97;0.90;;;5.70;99.90;;;;;;5109001;28;20218;-78
2021/03/12 03:58:31;;;;;;;2.50;1.07;;;5.70;99.90;;;;;;5108899;28;20275;-78
2021/03/12 04:01:00;;;;;;;2.00;0.80;;;5.80;99.90;;;;;;5109016;28;20198;-78
2021/03/12 04:03:27;;;;;;;2.03;0.80;;;5.70;99.90;;;;;;5108052;28;20234;-78
2021/03/12 04:05:54;;;;;;;0.80;0.80;;;5.80;99.90;;;;;;5109098;28;20668;-78
2021/03/12 04:08:22;;;;;;;0.83;0.77;;;5.80;99.90;;;;;;5112770;28;20206;-79
2021/03/12 04:10:49;;;;;;;1.40;0.80;;;5.70;99.90;;;;;;5112722;28;20202;-79
2021/03/12 04:13:25;;;;;;;1.13;1.00;;;5.80;99.90;;;;;;5112810;28;20225;-78
2021/03/12 04:15:51;;;;;;;2.17;1.20;;;5.80;99.90;;;;;;5112605;27;20557;-79
2021/03/12 04:18:18;;;;;;;2.50;1.13;;;5.70;99.90;;;;;;5112663;28;20262;-79
2021/03/12 04:20:45;;;;;;;1.20;0.97;;;5.70;99.90;;;;;;5112429;28;20217;-78
2021/03/12 04:23:11;;;;;;;2.53;0.67;;;5.70;99.90;;;;;;5112521;28;20210;-78
2021/03/12 04:25:38;;;;;;;1.67;0.80;;;5.80;99.90;;;;;;5112280;28;20270;-79
2021/03/12 04:28:06;;;;;;;2.10;0.93;;;5.70;99.90;;;;;;5112639;28;20210;-78
2021/03/12 04:30:32;;;;;;;1.73;0.90;;;5.90;99.90;;;;;;5112344;28;20210;-78
2021/03/12 04:32:59;;;;;;;0.80;0.80;;;5.80;99.90;;;;;;5112466;27;20237;-78
2021/03/12 04:35:26;;;;;;;2.40;1.07;;;5.70;99.90;;;;;;5112459;28;20225;-78
2021/03/12 04:37:53;;;;;;;3.50;1.27;;;5.70;99.90;;;;;;5112352;28;20568;-78
2021/03/12 04:40:20;;;;;;;2.00;1.00;;;5.70;99.90;;;;;;5112103;28;20202;-78
2021/03/12 04:42:47;;;;;;;1.10;1.00;;;5.70;99.90;;;;;;5112191;28;20201;-77
2021/03/12 04:45:15;;;;;;;2.37;1.00;;;5.70;99.90;;;;;;5112250;28;20228;-77
2021/03/12 04:47:41;;;;;;;2.97;1.20;;;5.70;99.90;;;;;;5111981;28;20634;-79
2021/03/12 04:50:12;;;;;;;1.53;1.30;;;5.70;99.90;;;;;;5112066;28;20202;-78
2021/03/12 04:52:39;;;;;;;2.30;0.90;;;5.70;99.90;;;;;;5111711;28;20222;-79
2021/03/12 04:55:08;;;;;;;2.67;1.23;;;5.70;99.90;;;;;;5112061;28;20206;-80
2021/03/12 04:57:35;;;;;;;2.10;1.07;;;5.70;99.90;;;;;;5111494;28;20202;-82
2021/03/12 05:00:03;;;;;;;2.10;1.17;;;5.70;99.90;;;;;;5111933;28;20206;-79
2021/03/12 05:02:30;;;;;;;1.83;1.30;;;5.70;99.90;;;;;;5111393;28;20234;-78
2021/03/12 05:04:57;;;;;;;3.03;1.33;;;5.60;99.90;;;;;;5111547;28;20210;-79
2021/03/12 05:07:25;;;;;;;2.17;1.50;;;5.60;99.90;;;;;;5111699;28;20202;-79
2021/03/12 05:09:52;;;;;;;2.27;1.43;;;5.60;99.90;;;;;;5094948;28;20240;-77
2021/03/12 05:12:18;;;;;;;2.07;1.50;;;5.60;99.90;;;;;;5090959;28;20241;-78
2021/03/12 05:14:44;;;;;;;2.03;1.53;;;5.60;99.90;;;;;;5091171;28;20207;-78
2021/03/12 05:17:10;;;;;;;1.73;1.40;;;5.60;99.90;;;;;;5089933;28;20237;-78
2021/03/12 05:19:37;;;;;;;3.43;1.60;;;5.70;99.90;;;;;;5090146;28;20665;-78
2021/03/12 05:22:04;;;;;;;3.53;1.70;;;5.60;99.90;;;;;;5090913;28;20613;-80
2021/03/12 05:24:30;;;;;;;1.73;1.60;;;5.60;99.90;;;;;;5090580;28;20889;-82
2021/03/12 05:26:56;;;;;;;2.87;1.97;;;5.70;99.90;;;;;;5090768;28;20395;-78
2021/03/12 05:29:23;;;;;;;2.50;2.10;;;5.70;99.90;;;;;;5090941;28;20213;-81
2021/03/12 05:31:49;;;;;;;1.90;1.73;;;5.60;99.90;;;;;;5091029;28;20288;-78
2021/03/12 05:34:15;;;;;;;2.73;2.07;;;5.70;99.90;;;;;;5091085;28;20236;-79
2021/03/12 05:36:42;;;;;;;2.20;2.00;;;5.60;99.90;;;;;;5090521;28;20219;-79
2021/03/12 05:39:09;;;;;;;2.33;2.13;;;5.60;99.90;;;;;;5090756;28;20549;-81
2021/03/12 05:41:37;;;;;;;2.47;2.10;;;5.60;99.90;;;;;;5090691;28;20210;-79
2021/03/12 05:44:05;;;;;;;3.10;2.27;;;5.50;99.90;;;;;;5090756;28;20214;-80
2021/03/12 05:46:31;;;;;;;2.20;2.00;;;5.50;99.90;;;;;;5090597;28;20199;-80
2021/03/12 05:48:58;;;;;;;3.57;2.10;;;5.50;99.90;;;;;;5090622;28;20285;-80
2021/03/12 05:51:25;;;;;;;2.20;2.00;;;5.50;99.90;;;;;;5090493;28;20203;-79
2021/03/12 05:53:53;;;;;;;3.90;2.07;;;5.50;99.90;;;;;;5090181;28;20240;-79
2021/03/12 05:56:21;;;;;;;3.03;1.80;;;5.50;99.90;;;;;;5090511;28;20214;-79
2021/03/12 05:58:48;;;;;;;2.63;2.10;;;5.50;99.90;;;;;;5090082;28;20668;-79
2021/03/12 06:01:14;;;;;;;2.17;1.90;;;5.50;99.90;;;;;;5090516;28;20213;-80
2021/03/12 06:03:42;;;;;;;1.57;1.40;;;5.50;99.90;;;;;;5090062;28;20231;-78
2021/03/12 06:06:08;;;;;;;1.90;1.60;;;5.50;99.90;;;;;;5090448;28;20215;-78
2021/03/12 06:08:35;;;;;;;2.17;2.00;;;5.50;99.90;;;;;;5095922;28;20210;-80
2021/03/12 06:11:02;;;;;;;2.53;1.90;;;5.40;99.90;;;;;;5110701;28;20212;-79
2021/03/12 06:13:29;;;;;;;4.63;4.20;;;5.40;99.90;;;;;;5110138;28;20759;-79
2021/03/12 06:15:55;;;;;;;2.33;2.20;;;5.50;99.90;;;;;;5110711;28;20203;-78
2021/03/12 06:18:24;;;;;;;2.80;2.60;;;5.40;99.90;;;;;;5110498;28;20210;-79
2021/03/12 06:20:51;;;;;;;2.83;2.63;;;5.40;99.90;;;;;;5110348;28;20202;-80
2021/03/12 06:23:33;;;;;;;3.03;2.83;;;5.40;99.90;;;;;;5110382;28;20202;-81
2021/03/12 06:25:59;;;;;;;5.60;3.00;;;5.40;99.90;;;;;;5110076;28;20710;-79
2021/03/12 06:28:26;;;;;;;3.57;3.27;;;5.40;99.90;;;;;;5110190;28;20232;-80
2021/03/12 06:30:53;;;;;;;5.20;3.53;;;5.40;99.90;;;;;;5109975;28;20205;-80
2021/03/12 06:33:30;;;;;;;3.57;3.30;;;5.40;99.90;;;;;;5110134;28;20238;-81
2021/03/12 06:35:58;;;;;;;4.93;3.73;;;5.30;99.90;;;;;;5110272;28;20226;-82
2021/03/12 06:38:26;;;;;;;5.03;4.03;;;5.30;99.90;;;;;;5110056;28;20206;-80
2021/03/12 06:40:53;;;;;;;4.13;3.80;;;5.30;99.90;;;;;;5109938;28;20213;-80
2021/03/12 06:43:20;;;;;;;5.07;3.87;;;5.30;99.90;;;;;;5109909;28;20210;-81
2021/03/12 06:46:01;;;;;;;5.63;3.90;;;5.30;99.90;;;;;;5110068;28;20206;-85
2021/03/12 06:48:29;;;;;;;5.77;3.90;;;5.30;99.90;;;;;;5110032;28;20575;-82
2021/03/12 06:50:57;;;;;;;5.13;4.10;;;5.30;99.90;;;;;;5109876;28;20198;-81
2021/03/12 06:53:31;;;;;;;4.53;3.97;;;5.30;99.90;;;;;;5109769;28;20275;-79
2021/03/12 06:55:59;;;;;;;4.03;3.63;;;5.30;99.90;;;;;;5109600;28;20210;-79
2021/03/12 06:58:25;;;;;;;4.37;4.07;;;5.30;99.90;;;;;;5109190;28;20657;-79
2021/03/12 07:00:52;;;;;;;5.80;4.00;;;5.40;99.90;;;;;;5109503;28;20235;-79
2021/03/12 07:03:21;;;;;;;4.73;4.33;;;5.40;99.90;;;;;;5105868;28;20226;-80
2021/03/12 07:06:16;;;;;;;4.23;3.83;;;5.40;99.90;;;;;;5100167;28;20198;-80
2021/03/12 07:08:45;;;;;;;5.97;3.97;;;5.40;99.90;;;;;;5099662;28;20199;-83
2021/03/12 07:11:19;;;;;;;5.53;4.23;;;5.40;99.90;;;;;;5105990;28;20206;-80
2021/03/12 07:13:46;;;;;;;5.23;3.97;;;5.50;99.90;;;;;;5099756;28;20228;-80
2021/03/12 07:16:12;;;;;;;4.60;3.87;;;5.60;99.90;;;;;;5100282;28;20545;-84
2021/03/12 07:18:39;;;;;;;4.63;4.13;;;5.60;99.90;;;;;;5090167;28;20199;-80
2021/03/12 07:21:06;;;;;;;4.03;3.73;;;5.70;99.90;;;;;;5089244;28;20202;-85
2021/03/12 07:23:36;;;;;;;5.17;3.70;;;5.70;99.90;;;;;;5088858;28;20206;-80
2021/03/12 07:26:03;;;;;;;3.97;3.63;;;5.80;99.90;;;;;;5103687;28;20194;-80
2021/03/12 07:28:30;;;;;;;4.10;3.80;;;5.80;99.90;;;;;;5109411;28;20210;-80
2021/03/12 07:30:57;;;;;;;4.07;3.77;;;5.80;99.90;;;;;;5109067;28;20213;-78
2021/03/12 07:33:26;;;;;;;4.03;3.73;;;5.80;99.90;;;;;;5109221;28;20242;-79
2021/03/12 07:35:54;;;;;;;5.47;3.67;;;5.90;99.90;;;;;;5108535;28;20228;-80
2021/03/12 07:38:22;;;;;;;6.43;3.90;;;5.90;99.90;;;;;;5103520;28;20576;-80
2021/03/12 07:40:49;;;;;;;5.27;4.37;;;6.00;99.90;;;;;;5104128;28;20206;-79
2021/03/12 07:43:16;;;;;;;3.67;3.37;;;6.00;99.90;;;;;;5098595;28;20198;-83
2021/03/12 07:45:43;;;;;;;4.00;3.70;;;6.00;99.90;;;;;;5093025;28;20273;-79
2021/03/12 07:48:10;;;;;;;4.20;3.57;;;6.00;99.90;;;;;;5092443;28;20206;-76
2021/03/12 07:50:38;;;;;;;3.47;3.27;;;6.10;99.90;;;;;;5087074;28;20199;-77
2021/03/12 07:53:06;;;;;;;3.70;3.17;;;6.10;99.90;;;;;;5084312;28;20723;-79
2021/03/12 07:55:51;;;;;;;3.40;3.10;;;6.10;99.90;;;;;;5084376;28;20218;-79
2021/03/12 07:58:56;;;;;;;3.87;3.40;;;6.10;99.90;;;;;;5084546;28;20623;-78
2021/03/12 08:01:24;;;;;;;3.23;2.97;;;6.10;99.90;;;;;;5084882;28;20203;-78
2021/03/12 08:03:51;;;;;;;3.57;3.10;;;6.10;99.90;;;;;;5084284;28;20249;-79
2021/03/12 08:06:36;;;;;;;2.97;2.77;;;6.10;99.90;;;;;;5084650;28;20215;-79
2021/03/12 08:09:32;;;;;;;3.70;3.37;;;6.20;99.90;;;;;;5094575;28;20282;-80
2021/03/12 08:11:58;;;;;;;4.80;3.37;;;6.20;99.90;;;;;;5104940;28;20206;-80
2021/03/12 08:14:24;;;;;;;4.10;3.67;;;6.30;99.90;;;;;;5104602;28;20206;-80
2021/03/12 08:17:13;;;;;;;4.03;3.00;;;6.30;99.90;;;;;;5105173;28;20229;-78
2021/03/12 08:19:41;;;;;;;4.57;3.37;;;6.30;99.90;;;;;;5104512;28;20206;-79
2021/03/12 08:22:44;;;;;;;4.33;3.13;;;6.40;99.90;;;;;;5104201;28;20683;-79
2021/03/12 08:25:44;;;;;;;3.87;3.57;;;6.40;99.90;;;;;;5104583;28;20190;-80
2021/03/12 08:28:31;;;;;;;3.70;3.27;;;6.40;99.90;;;;;;5041123;28;20204;-78
2021/03/12 08:30:59;;;;;;;4.47;4.07;;;6.40;99.90;;;;;;5098090;28;20677;-79
2021/03/12 08:33:34;;;;;;;4.20;3.40;;;6.40;99.90;;;;;;5104338;28;20234;-80
2021/03/12 08:36:00;;;;;;;6.20;4.27;;;6.40;99.90;;;;;;5104252;28;20264;-79
2021/03/12 08:38:43;;;;;;;4.80;4.10;;;6.40;99.90;;;;;;5099563;28;20297;-79
2021/03/12 08:41:20;;;;;;;5.63;4.37;;;6.50;99.90;;;;;;5084078;28;20195;-79
2021/03/12 08:43:55;;;;;;;3.87;3.53;;;6.50;99.90;;;;;;5083692;28;20578;-82
2021/03/12 08:46:27;;;;;;;4.43;3.40;;;6.60;99.90;;;;;;5084299;28;20329;-79
2021/03/12 08:48:55;;;;;;;4.17;3.77;;;6.50;99.90;;;;;;5091583;28;20210;-79
2021/03/12 08:51:23;;;;;;;4.60;3.47;;;6.60;99.90;;;;;;5100064;28;20198;-80
2021/03/12 08:53:52;;;;;;;6.13;3.37;;;6.60;99.90;;;;;;5102955;28;20264;-79
2021/03/12 08:56:31;;;;;;;4.77;4.30;;;6.60;99.90;;;;;;5100255;28;20311;-79
2021/03/12 08:58:58;;;;;;;3.27;3.03;;;6.60;99.90;;;;;;5099119;28;20191;-79
2021/03/12 09:01:36;;;;;;;3.97;3.57;;;6.60;99.90;;;;;;5098867;28;20217;-80
2021/03/12 09:04:04;;;;;;;6.73;3.40;;;6.60;99.90;;;;;;5093406;28;20503;-80
2021/03/12 09:06:32;;;;;;;4.37;3.33;;;6.60;99.90;;;;;;5091267;28;20209;-80
2021/03/12 09:08:59;;;;;;;3.80;3.50;;;6.60;99.90;;;;;;5100425;28;20210;-80
2021/03/12 09:11:26;;;;;;;4.20;3.80;;;6.60;99.90;;;;;;5111292;28;20206;-80
2021/03/12 09:13:57;;;;;;;4.10;3.60;;;6.70;99.90;;;;;;5111026;28;20237;-81
2021/03/12 09:16:25;;;;;;;3.90;3.50;;;6.80;99.90;;;;;;5111427;28;20242;-81
2021/03/12 09:18:54;;;;;;;3.60;3.30;;;6.90;99.90;;;;;;5111086;28;20665;-81
2021/03/12 09:21:23;;;;;;;3.70;3.40;;;7.10;99.90;;;;;;5111481;28;20233;-79
2021/03/12 09:23:51;;;;;;;3.37;3.10;;;7.20;99.90;;;;;;5110867;28;20204;-80
2021/03/12 09:26:19;;;;;;;7.33;3.50;;;7.50;99.90;;;;;;5110907;28;20212;-80
2021/03/12 09:28:46;;;;;;;5.33;3.40;;;7.70;99.90;;;;;;5110922;28;20234;-80
2021/03/12 09:31:15;;;;;;;4.13;3.03;;;7.90;99.90;;;;;;5108899;28;20214;-79
2021/03/12 09:33:43;;;;;;;3.33;3.03;;;7.90;99.90;;;;;;5101508;28;20226;-81
2021/03/12 09:36:25;;;;;;;3.43;3.10;;;7.80;99.90;;;;;;5100458;28;20218;-82
2021/03/12 09:38:53;;;;;;;4.73;3.67;;;7.80;99.90;;;;;;5096499;28;20201;-82
2021/03/12 09:41:21;;;;;;;5.37;3.03;;;7.90;99.90;;;;;;5101832;28;20190;-79
2021/03/12 09:44:03;;;;;;;3.07;2.70;;;7.90;99.90;;;;;;5095406;28;20206;-78
2021/03/12 09:46:32;;;;;;;4.47;2.97;;;7.90;99.90;;;;;;5089469;28;20187;-81
2021/03/12 09:48:59;;;;;;;4.37;2.73;;;8.10;99.90;;;;;;5089117;28;20199;-80
2021/03/12 09:51:26;;;;;;;3.00;2.70;;;8.20;99.90;;;;;;5089272;28;20191;-79
2021/03/12 09:53:53;;;;;;;5.73;2.87;;;8.20;99.90;;;;;;5088713;28;20314;-79
2021/03/12 09:56:22;;;;;;;6.03;2.33;;;8.30;99.90;;;;;;5089078;28;20194;-79
2021/03/12 09:58:49;;;;;;;3.43;2.40;;;8.50;99.90;;;;;;5088874;28;20239;-79
2021/03/12 10:01:17;;;;;;;3.90;2.40;;;8.60;99.90;;;;;;5089005;28;20199;-79
2021/03/12 10:03:44;;;;;;;3.87;1.90;;;8.60;99.90;;;;;;5087593;28;20230;-79
2021/03/12 10:06:12;;;;;;;3.00;2.00;;;8.60;99.90;;;;;;5089095;28;20219;-78
2021/03/12 10:09:01;;;;;;;2.27;1.97;;;8.70;99.90;;;;;;5094777;28;20202;-79
2021/03/12 10:11:38;;;;;;;5.40;2.10;;;8.80;99.90;;;;;;5088833;28;20191;-79
2021/03/12 10:14:30;;;;;;;4.63;1.70;;;9.00;99.90;;;;;;5088832;28;20295;-78
2021/03/12 10:17:13;;;;;;;5.73;1.93;;;8.80;99.90;;;;;;5094505;28;20191;-78
2021/03/12 10:19:49;;;;;;;3.40;1.90;;;8.70;99.90;;;;;;5098197;28;20183;-77
2021/03/12 10:22:19;;;;;;;3.60;1.90;;;8.60;99.90;;;;;;5094752;28;20729;-76
2021/03/12 10:24:47;;;;;;;2.47;2.17;;;8.50;99.90;;;;;;5099702;28;20201;-76
2021/03/12 10:27:18;;;;;;;3.87;2.27;;;8.40;99.90;;;;;;5102432;28;20203;-76
2021/03/12 10:29:45;;;;;;;3.30;1.90;;;8.40;99.90;;;;;;5101473;28;20202;-77
2021/03/12 10:32:11;;;;;;;4.20;2.30;;;8.30;99.90;;;;;;5099852;28;20197;-76
2021/03/12 10:34:45;;;;;;;4.50;2.20;;;8.40;99.90;;;;;;5094302;28;20272;-77
2021/03/12 10:37:13;;;;;;;3.23;2.17;;;8.40;99.90;;;;;;5095514;28;20206;-77
2021/03/12 10:39:41;;;;;;;6.07;2.47;;;8.60;99.90;;;;;;5096400;28;20199;-76
2021/03/12 10:42:07;;;;;;;4.17;2.97;;;8.60;99.90;;;;;;5101334;28;20205;-76
2021/03/12 10:44:48;;;;;;;5.97;2.20;;;8.70;99.90;;;;;;5103109;28;20190;-76
2021/03/12 10:47:14;;;;;;;4.90;2.27;;;8.70;99.90;;;;;;5087250;28;20203;-77
2021/03/12 10:49:40;;;;;;;3.10;2.40;;;8.70;99.90;;;;;;5091319;28;20195;-77
2021/03/12 10:52:07;;;;;;;3.77;1.93;;;8.90;99.90;;;;;;5100147;28;20276;-76
2021/03/12 10:54:34;;;;;;;2.20;2.00;;;9.10;99.90;;;;;;5097695;28;20190;-77
2021/03/12 10:57:00;;;;;;;2.10;1.90;;;9.20;99.90;;;;;;5099259;28;20207;-77
2021/03/12 10:59:26;;;;;;;4.70;3.30;;;9.10;99.90;;;;;;5095923;28;20199;-78
2021/03/12 11:01:52;;;;;;;6.10;4.70;;;8.90;99.90;;;;;;5095475;28;20195;-78
2021/03/12 11:04:18;;;;;;;4.27;2.03;;;8.80;99.90;;;;;;5095661;28;20190;-77
2021/03/12 11:06:45;;;;;;;4.43;2.33;;;8.80;99.90;;;;;;5095093;28;20638;-76
2021/03/12 11:09:13;;;;;;;3.83;2.10;;;8.70;99.90;;;;;;5101031;28;20206;-76
2021/03/12 11:11:41;;;;;;;5.37;2.03;;;8.70;99.90;;;;;;5099322;28;20206;-75
2021/03/12 11:14:09;;;;;;;4.03;2.10;;;8.70;99.90;;;;;;5092791;28;20262;-76
2021/03/12 11:16:36;;;;;;;5.00;2.07;;;8.80;99.90;;;;;;5089688;28;20203;-76
2021/03/12 11:19:03;;;;;;;3.63;1.57;;;8.80;99.90;;;;;;5090932;28;20198;-76
2021/03/12 11:21:29;;;;;;;2.93;2.00;;;8.80;99.90;;;;;;5105357;28;20202;-77
2021/03/12 11:23:55;;;;;;;4.90;2.43;;;8.90;99.90;;;;;;5102333;28;20210;-75
2021/03/12 11:26:23;;;;;;;3.13;2.17;;;9.20;99.90;;;;;;5102427;28;20194;-74
2021/03/12 11:28:50;;;;;;;3.53;2.43;;;9.20;99.90;;;;;;5101905;28;20783;-75
2021/03/12 11:31:16;;;;;;;3.43;2.30;;;9.20;99.90;;;;;;5104951;28;20195;-74
2021/03/12 11:33:42;;;;;;;3.10;1.97;;;9.10;99.90;;;;;;5090661;28;20225;-74
2021/03/12 11:36:10;;;;;;;3.27;2.53;;;9.10;99.90;;;;;;5099573;28;20265;-75
2021/03/12 11:38:36;;;;;;;3.27;2.50;;;9.00;99.90;;;;;;5100677;28;20664;-74
2021/03/12 11:41:03;;;;;;;3.80;2.50;;;8.90;99.90;;;;;;5092578;28;20695;-77
2021/03/12 11:43:30;;;;;;;4.20;2.60;;;8.90;99.90;;;;;;5094073;28;20198;-75
2021/03/12 11:45:57;;;;;;;3.93;2.90;;;9.00;99.90;;;;;;5096790;28;20198;-74
2021/03/12 11:48:24;;;;;;;2.70;2.47;;;9.00;99.90;;;;;;5101383;28;20201;-75
2021/03/12 11:50:51;;;;;;;2.73;2.53;;;9.00;99.90;;;;;;5091689;28;20579;-75
2021/03/12 11:53:18;;;;;;;2.90;2.30;;;9.20;99.90;;;;;;5092348;28;20280;-74
2021/03/12 11:55:44;;;;;;;3.80;2.67;;;9.40;99.90;;;;;;5097800;28;20206;-75
2021/03/12 11:58:10;;;;;;;3.63;2.80;;;9.60;99.90;;;;;;5093097;28;20717;-74
2021/03/12 12:00:37;;;;;;;3.63;2.80;;;9.80;99.90;;;;;;5091506;28;20198;-74
2021/03/12 12:03:04;;;;;;;5.10;3.13;;;9.60;99.90;;;;;;5092250;28;20229;-75
2021/03/12 12:05:30;;;;;;;6.13;3.33;;;9.30;99.90;;;;;;5101530;28;20424;-74
2021/03/12 12:07:57;;;;;;;6.30;3.37;;;9.30;99.90;;;;;;5104253;28;20239;-75
2021/03/12 12:10:24;;;;;;;3.70;3.10;;;9.40;99.90;;;;;;5104161;28;20209;-74
2021/03/12 12:12:55;;;;;;;3.90;3.43;;;9.50;99.90;;;;;;5103612;28;20244;-75
2021/03/12 12:15:21;;;;;;;3.37;3.07;;;9.60;99.90;;;;;;5095394;28;20217;-75
2021/03/12 12:17:49;;;;;;;5.10;2.90;;;9.50;99.90;;;;;;5104355;28;20202;-75
2021/03/12 12:20:16;;;;;;;4.50;2.97;;;9.60;99.90;;;;;;5104791;28;20629;-75
2021/03/12 12:22:44;;;;;;;3.70;2.70;;;9.50;99.90;;;;;;5103660;28;20668;-75
2021/03/12 12:25:11;;;;;;;2.67;2.47;;;9.60;99.90;;;;;;5104933;28;20228;-75
2021/03/12 12:27:38;;;;;;;5.80;2.30;;;9.90;99.90;;;;;;5106235;28;20226;-76
2021/03/12 12:30:05;;;;;;;4.23;2.97;;;10.10;99.90;;;;;;5108011;28;20213;-76
2021/03/12 12:32:32;;;;;;;5.20;2.40;;;10.10;99.90;;;;;;5107506;28;20302;-75
2021/03/12 12:34:59;;;;;;;3.40;2.17;;;10.00;99.90;;;;;;5108409;28;20218;-75
2021/03/12 12:37:25;;;;;;;2.80;2.00;;;9.90;99.90;;;;;;5108415;28;20216;-75
2021/03/12 12:39:52;;;;;;;3.67;1.90;;;9.80;99.90;;;;;;5108051;28;20676;-76
2021/03/12 12:42:18;;;;;;;3.97;2.20;;;9.70;99.90;;;;;;5107569;28;20206;-75
2021/03/12 12:44:44;;;;;;;3.00;2.20;;;9.70;99.90;;;;;;5107860;28;20627;-75
2021/03/12 12:47:11;;;;;;;4.10;2.10;;;9.70;99.90;;;;;;5107746;28;20217;-76
2021/03/12 12:49:37;;;;;;;3.10;1.97;;;9.70;99.90;;;;;;5106181;28;20607;-75
2021/03/12 12:52:04;;;;;;;3.67;1.90;;;9.70;99.90;;;;;;5087316;28;20202;-75
2021/03/12 12:54:31;;;;;;;4.30;2.00;;;9.80;99.90;;;;;;5087112;28;20238;-75
2021/03/12 12:56:58;;;;;;;2.83;2.30;;;9.80;99.90;;;;;;5087132;28;20665;-76
2021/03/12 12:59:24;;;;;;;2.23;1.87;;;9.70;99.90;;;;;;5087267;28;20199;-75
2021/03/12 13:01:50;;;;;;;1.80;1.70;;;9.70;99.90;;;;;;5086921;28;20210;-75
2021/03/12 13:04:16;;;;;;;3.53;1.90;;;9.70;99.90;;;;;;5087077;28;20195;-75
2021/03/12 13:06:42;;;;;;;2.10;1.60;;;9.80;99.90;;;;;;5087533;28;20580;-75